Time;durP1;ratioP1;P1;durP2;ratioP2;P2;SDS_P1;SDS_P2;PMS_P1;PMS_P2;Temp;Humidity;BMP_temperature;BMP_pressure;BME280_temperature;BME280_humidity;BME280_pressure;Samples;Min_cycle;Max_cycle;Signal;HPM_P1;HPM_P2
2024/04/07 00:01:40;;;;;;;;;;;;;;;14.06;96.83;97601.47;5067204;28;19927;-49
2024/04/07 00:04:05;;;;;;;;;;;;;;;13.66;98.10;97604.56;5068037;28;19993;-49
2024/04/07 00:06:31;;;;;;;;;;;;;;;13.80;97.80;97597.38;5066029;28;19926;-50
2024/04/07 00:08:57;;;;;;;;;;;;;;;13.81;98.45;97598.19;5061434;28;20017;-50
2024/04/07 00:11:22;;;;;;;;;;;;;;;13.78;98.62;97595.81;5069405;28;20280;-52
2024/04/07 00:13:48;;;;;;;;;;;;;;;13.73;98.63;97590.09;5069137;28;19935;-50
2024/04/07 00:16:13;;;;;;;;;;;;;;;13.83;97.39;97585.84;5058710;28;19913;-51
2024/04/07 00:18:38;;;;;;;;;;;;;;;13.69;97.91;97586.06;5066156;28;20499;-50
2024/04/07 00:21:04;;;;;;;;;;;;;;;13.66;99.67;97579.25;5069376;28;19922;-51
2024/04/07 00:23:30;;;;;;;;;;;;;;;13.65;98.34;97582.00;5069376;28;20277;-50
2024/04/07 00:25:55;;;;;;;;;;;;;;;13.69;99.72;97579.03;5067248;28;20008;-50
2024/04/07 00:28:20;;;;;;;;;;;;;;;13.71;99.12;97578.91;5067399;28;19924;-49
2024/04/07 00:30:46;;;;;;;;;;;;;;;13.59;99.19;97577.22;5059928;28;19920;-49
2024/04/07 00:33:11;;;;;;;;;;;;;;;13.55;98.48;97574.00;5066555;28;19935;-49
2024/04/07 00:35:36;;;;;;;;;;;;;;;13.49;99.95;97571.03;5061930;28;19938;-51
2024/04/07 00:38:01;;;;;;;;;;;;;;;13.37;99.71;97570.13;5068532;28;19948;-51
2024/04/07 00:40:26;;;;;;;;;;;;;;;13.40;99.15;97562.06;5072983;28;20339;-51
2024/04/07 00:42:54;;;;;;;;;;;;;;;13.52;99.78;97571.63;5071214;28;20239;-49
2024/04/07 00:45:19;;;;;;;;;;;;;;;13.53;99.87;97567.22;5066555;28;19920;-50
2024/04/07 00:47:44;;;;;;;;;;;;;;;13.51;98.33;97577.78;5068941;28;19978;-51
2024/04/07 00:50:10;;;;;;;;;;;;;;;13.09;100.00;97574.91;5068680;28;20358;-49
2024/04/07 00:52:36;;;;;;;;;;;;;;;13.46;100.00;97579.06;5066686;28;19930;-49
2024/04/07 00:55:02;;;;;;;;;;;;;;;13.14;100.00;97580.59;5065191;28;20335;-49
2024/04/07 00:57:29;;;;;;;;;;;;;;;13.18;100.00;97569.00;5067461;28;20075;-50
2024/04/07 00:59:54;;;;;;;;;;;;;;;13.31;100.00;97575.81;5068331;28;20278;-49
2024/04/07 01:02:20;;;;;;;;;;;;;;;13.19;100.00;97573.28;5058292;28;19924;-49
2024/04/07 01:04:45;;;;;;;;;;;;;;;13.10;100.00;97568.72;5064234;28;20336;-50
2024/04/07 01:07:10;;;;;;;;;;;;;;;13.33;100.00;97566.09;5066838;28;19937;-49
2024/04/07 01:09:36;;;;;;;;;;;;;;;12.89;100.00;97559.81;5063825;28;19949;-50
2024/04/07 01:12:09;;;;;;;;;;;;;;;12.96;100.00;97566.28;5069607;28;19945;-50
2024/04/07 01:14:35;;;;;;;;;;;;;;;13.04;100.00;97553.50;5064960;28;19926;-50
2024/04/07 01:17:00;;;;;;;;;;;;;;;13.04;100.00;97561.34;5072312;28;19934;-49
2024/04/07 01:19:25;;;;;;;;;;;;;;;13.11;100.00;97565.16;5072844;28;20465;-49
2024/04/07 01:21:50;;;;;;;;;;;;;;;13.01;100.00;97566.78;5074869;28;19935;-50
2024/04/07 01:24:15;;;;;;;;;;;;;;;12.93;100.00;97561.25;5059214;28;19953;-50
2024/04/07 01:26:41;;;;;;;;;;;;;;;12.69;100.00;97555.16;5061676;28;19924;-50
2024/04/07 01:29:06;;;;;;;;;;;;;;;12.84;100.00;97567.16;5066925;28;19924;-50
2024/04/07 01:31:31;;;;;;;;;;;;;;;12.55;100.00;97558.78;5070530;28;19913;-51
2024/04/07 01:33:56;;;;;;;;;;;;;;;12.71;100.00;97566.34;5057743;28;19941;-50
2024/04/07 01:36:22;;;;;;;;;;;;;;;12.91;100.00;97568.38;5065058;28;19934;-49
2024/04/07 01:38:47;;;;;;;;;;;;;;;12.44;100.00;97574.34;5061767;28;19965;-50
2024/04/07 01:41:12;;;;;;;;;;;;;;;12.66;100.00;97574.53;5069931;28;20115;-49
2024/04/07 01:43:37;;;;;;;;;;;;;;;12.48;100.00;97575.81;5066662;28;19991;-50
2024/04/07 01:46:03;;;;;;;;;;;;;;;12.64;100.00;97581.59;5064474;28;19978;-50
2024/04/07 01:48:28;;;;;;;;;;;;;;;12.75;100.00;97583.44;5074170;28;20370;-50
2024/04/07 01:50:54;;;;;;;;;;;;;;;12.71;100.00;97584.63;5059356;28;20072;-50
2024/04/07 01:53:19;;;;;;;;;;;;;;;12.63;100.00;97585.16;5062673;28;20022;-50
2024/04/07 01:55:44;;;;;;;;;;;;;;;12.68;100.00;97588.28;5070526;28;19974;-50
2024/04/07 01:58:09;;;;;;;;;;;;;;;12.66;100.00;97584.13;5061216;28;19924;-49
2024/04/07 02:00:35;;;;;;;;;;;;;;;12.91;100.00;97584.03;5062874;28;20011;-49
2024/04/07 02:03:00;;;;;;;;;;;;;;;12.73;100.00;97582.75;5068953;28;19975;-50
2024/04/07 02:05:26;;;;;;;;;;;;;;;12.57;100.00;97579.56;5052125;28;19920;-49
2024/04/07 02:07:51;;;;;;;;;;;;;;;12.56;100.00;97572.69;5065049;28;20273;-50
2024/04/07 02:10:16;;;;;;;;;;;;;;;12.44;100.00;97576.97;5066466;28;20362;-51
2024/04/07 02:12:41;;;;;;;;;;;;;;;12.57;100.00;97572.53;5062369;28;19921;-51
2024/04/07 02:15:07;;;;;;;;;;;;;;;12.64;100.00;97565.94;5060744;28;20397;-50
2024/04/07 02:17:35;;;;;;;;;;;;;;;12.75;100.00;97573.00;5066295;28;20390;-50
2024/04/07 02:20:01;;;;;;;;;;;;;;;12.73;100.00;97574.91;5058792;28;20065;-50
2024/04/07 02:22:26;;;;;;;;;;;;;;;12.58;100.00;97573.38;5067417;28;20032;-50
2024/04/07 02:24:51;;;;;;;;;;;;;;;12.50;100.00;97578.34;5072126;28;19944;-49
2024/04/07 02:27:17;;;;;;;;;;;;;;;12.66;100.00;97573.69;5071011;28;19920;-51
2024/04/07 02:29:44;;;;;;;;;;;;;;;12.64;100.00;97570.34;5065315;28;19930;-51
2024/04/07 02:32:09;;;;;;;;;;;;;;;12.77;100.00;97571.16;5070163;28;19941;-50
2024/04/07 02:34:34;;;;;;;;;;;;;;;12.75;100.00;97567.78;5068097;28;20385;-49
2024/04/07 02:37:00;;;;;;;;;;;;;;;12.75;100.00;97573.84;5062052;28;19974;-50
2024/04/07 02:39:25;;;;;;;;;;;;;;;12.50;100.00;97566.09;5065347;28;20269;-50
2024/04/07 02:41:51;;;;;;;;;;;;;;;12.72;100.00;97568.88;5062522;28;19927;-49
2024/04/07 02:44:16;;;;;;;;;;;;;;;12.67;100.00;97577.94;5055888;28;19952;-50
2024/04/07 02:49:26;;;;;;;;;;;;;;;12.65;100.00;97577.22;5062001;28;20272;-49
2024/04/07 02:51:51;;;;;;;;;;;;;;;12.60;100.00;97576.72;5066069;28;19932;-49
2024/04/07 02:54:16;;;;;;;;;;;;;;;12.59;100.00;97577.66;5061628;28;20035;-49
2024/04/07 02:56:41;;;;;;;;;;;;;;;12.75;100.00;97583.44;5068762;28;19923;-49
2024/04/07 02:59:07;;;;;;;;;;;;;;;12.75;100.00;97583.44;5068293;28;19960;-49
2024/04/07 03:01:32;;;;;;;;;;;;;;;12.73;100.00;97575.75;5065804;28;19992;-50
2024/04/07 03:03:57;;;;;;;;;;;;;;;12.69;100.00;97578.66;5066248;28;20029;-50
2024/04/07 03:06:22;;;;;;;;;;;;;;;12.69;100.00;97582.13;5067402;28;19924;-50
2024/04/07 03:08:49;;;;;;;;;;;;;;;12.62;100.00;97582.66;5070729;28;20371;-50
2024/04/07 03:11:14;;;;;;;;;;;;;;;12.63;100.00;97586.97;5064653;28;19917;-49
2024/04/07 03:13:39;;;;;;;;;;;;;;;12.81;100.00;97588.25;5075641;28;20057;-50
2024/04/07 03:16:11;;;;;;;;;;;;;;;12.68;100.00;97590.06;5070025;28;19927;-50
2024/04/07 03:18:36;;;;;;;;;;;;;;;12.64;100.00;97593.84;5061430;28;19942;-50
2024/04/07 03:21:02;;;;;;;;;;;;;;;12.66;100.00;97586.72;5070681;28;20400;-50
2024/04/07 03:23:28;;;;;;;;;;;;;;;12.69;100.00;97600.41;5061744;28;19920;-49
2024/04/07 03:25:53;;;;;;;;;;;;;;;12.75;100.00;97599.13;5065490;28;19961;-50
2024/04/07 03:28:18;;;;;;;;;;;;;;;12.62;100.00;97601.78;5074885;28;20297;-49
2024/04/07 03:30:43;;;;;;;;;;;;;;;12.61;100.00;97610.56;5068202;28;19948;-49
2024/04/07 03:33:08;;;;;;;;;;;;;;;12.39;100.00;97612.16;5067838;28;19976;-50
2024/04/07 03:35:34;;;;;;;;;;;;;;;12.23;100.00;97627.22;5058920;28;20001;-51
2024/04/07 03:37:59;;;;;;;;;;;;;;;12.32;100.00;97627.44;5072219;28;19970;-49
2024/04/07 03:40:25;;;;;;;;;;;;;;;12.47;100.00;97621.13;5066234;28;20962;-50
2024/04/07 03:42:50;;;;;;;;;;;;;;;12.31;100.00;97627.53;5071170;28;20390;-51
2024/04/07 03:45:16;;;;;;;;;;;;;;;12.46;100.00;97636.91;5068311;28;20053;-50
2024/04/07 03:47:41;;;;;;;;;;;;;;;12.54;100.00;97638.03;5063974;28;20032;-49
2024/04/07 03:50:07;;;;;;;;;;;;;;;12.35;100.00;97637.63;5075341;28;19935;-51
2024/04/07 03:52:32;;;;;;;;;;;;;;;12.47;100.00;97641.16;5067710;28;19953;-50
2024/04/07 03:54:58;;;;;;;;;;;;;;;12.54;100.00;97647.63;5068158;28;19946;-49
2024/04/07 03:57:23;;;;;;;;;;;;;;;12.41;100.00;97652.88;5071666;28;20436;-50
2024/04/07 03:59:48;;;;;;;;;;;;;;;12.56;100.00;97651.00;5059406;28;19940;-49
2024/04/07 04:02:20;;;;;;;;;;;;;;;12.37;100.00;97661.03;5073053;28;19927;-49
2024/04/07 04:04:46;;;;;;;;;;;;;;;12.53;100.00;97669.47;5064588;28;19992;-49
2024/04/07 04:07:11;;;;;;;;;;;;;;;12.47;100.00;97672.50;5065336;28;19924;-49
2024/04/07 04:09:36;;;;;;;;;;;;;;;12.29;100.00;97678.97;5073774;28;20366;-50
2024/04/07 04:12:01;;;;;;;;;;;;;;;12.21;100.00;97682.09;5068122;28;20429;-50
2024/04/07 04:14:26;;;;;;;;;;;;;;;12.36;100.00;97682.84;5073461;28;19941;-49
2024/04/07 04:16:52;;;;;;;;;;;;;;;12.47;100.00;97683.78;5063631;28;19912;-49
2024/04/07 04:19:17;;;;;;;;;;;;;;;12.60;100.00;97694.19;5062146;28;19941;-49
2024/04/07 04:21:43;;;;;;;;;;;;;;;12.38;100.00;97694.00;5068783;28;20328;-49
2024/04/07 04:24:08;;;;;;;;;;;;;;;12.44;100.00;97704.03;5065910;28;19921;-48
2024/04/07 04:26:33;;;;;;;;;;;;;;;12.41;100.00;97709.44;5068492;28;20277;-49
2024/04/07 04:28:59;;;;;;;;;;;;;;;12.43;100.00;97707.59;5067059;28;20058;-51
2024/04/07 04:31:24;;;;;;;;;;;;;;;12.38;100.00;97709.66;5064443;28;20027;-49
2024/04/07 04:33:49;;;;;;;;;;;;;;;12.38;100.00;97714.88;5064930;28;19937;-49
2024/04/07 04:36:15;;;;;;;;;;;;;;;12.27;100.00;97722.59;5068068;28;19956;-50
2024/04/07 04:38:40;;;;;;;;;;;;;;;12.38;100.00;97715.69;5062799;28;20294;-49
2024/04/07 04:41:05;;;;;;;;;;;;;;;12.20;100.00;97718.72;5061858;28;19984;-48
2024/04/07 04:43:31;;;;;;;;;;;;;;;12.17;100.00;97732.81;5067071;28;20011;-48
2024/04/07 04:46:03;;;;;;;;;;;;;;;12.34;100.00;97734.28;5065967;28;20056;-48
2024/04/07 04:48:35;;;;;;;;;;;;;;;12.28;100.00;97735.53;5065408;28;20329;-49
2024/04/07 04:51:00;;;;;;;;;;;;;;;12.13;100.00;97735.72;5067212;28;19924;-50
2024/04/07 04:53:26;;;;;;;;;;;;;;;12.29;100.00;97725.94;5070960;28;20265;-49
2024/04/07 04:55:52;;;;;;;;;;;;;;;12.20;100.00;97731.78;5062385;28;19913;-50
2024/04/07 04:58:19;;;;;;;;;;;;;;;12.19;100.00;97746.63;5065571;28;19938;-48
2024/04/07 05:00:44;;;;;;;;;;;;;;;12.19;100.00;97744.00;5060801;28;20024;-49
2024/04/07 05:03:09;;;;;;;;;;;;;;;12.32;100.00;97744.84;5072847;28;19916;-48
2024/04/07 05:05:34;;;;;;;;;;;;;;;12.23;100.00;97752.47;5065419;28;19943;-48
2024/04/07 05:08:00;;;;;;;;;;;;;;;12.47;100.00;97756.00;5067095;28;19962;-48
2024/04/07 05:10:25;;;;;;;;;;;;;;;12.38;100.00;97759.25;5066269;28;19935;-49
2024/04/07 05:12:50;;;;;;;;;;;;;;;12.25;100.00;97750.56;5065072;28;19940;-50
2024/04/07 05:15:16;;;;;;;;;;;;;;;12.59;100.00;97760.41;5062330;28;19970;-48
2024/04/07 05:17:42;;;;;;;;;;;;;;;12.41;100.00;97766.88;5065851;28;20021;-48
2024/04/07 05:20:07;;;;;;;;;;;;;;;12.38;100.00;97761.88;5067724;28;20092;-49
2024/04/07 05:22:33;;;;;;;;;;;;;;;12.15;100.00;97770.38;5056270;28;19925;-49
2024/04/07 05:24:58;;;;;;;;;;;;;;;12.45;100.00;97778.78;5064818;28;20046;-48
2024/04/07 05:27:23;;;;;;;;;;;;;;;12.50;100.00;97774.09;5064786;28;20472;-49
2024/04/07 05:29:50;;;;;;;;;;;;;;;12.57;100.00;97778.78;5066924;28;20282;-48
2024/04/07 05:32:15;;;;;;;;;;;;;;;12.20;100.00;97783.97;5070433;28;20329;-48
2024/04/07 05:34:40;;;;;;;;;;;;;;;12.47;100.00;97782.97;5055947;28;19924;-49
2024/04/07 05:37:06;;;;;;;;;;;;;;;12.41;100.00;97792.97;5065431;28;19930;-49
2024/04/07 05:39:31;;;;;;;;;;;;;;;12.30;100.00;97800.69;5065761;28;20390;-48
2024/04/07 05:41:57;;;;;;;;;;;;;;;12.45;100.00;97804.88;5066045;28;19938;-48
2024/04/07 05:44:22;;;;;;;;;;;;;;;12.36;100.00;97815.94;5070634;28;20051;-48
2024/04/07 05:46:47;;;;;;;;;;;;;;;12.43;100.00;97812.81;5063980;28;20022;-50
2024/04/07 05:49:12;;;;;;;;;;;;;;;12.43;100.00;97809.38;5068786;28;20057;-49
2024/04/07 05:51:37;;;;;;;;;;;;;;;12.55;100.00;97817.22;5067536;28;19945;-49
2024/04/07 05:54:03;;;;;;;;;;;;;;;12.71;100.00;97822.25;5068961;28;20225;-50
2024/04/07 05:56:28;;;;;;;;;;;;;;;12.65;100.00;97817.44;5057382;28;20248;-49
2024/04/07 05:58:53;;;;;;;;;;;;;;;12.77;100.00;97821.84;5069888;28;19978;-49
2024/04/07 06:01:18;;;;;;;;;;;;;;;12.99;100.00;97828.16;5067628;28;20211;-50
2024/04/07 06:03:43;;;;;;;;;;;;;;;12.88;100.00;97833.22;5064447;28;20428;-49
2024/04/07 06:06:09;;;;;;;;;;;;;;;13.03;100.00;97828.78;5075137;28;20386;-49
2024/04/07 06:08:34;;;;;;;;;;;;;;;12.92;100.00;97834.69;5069092;28;19944;-49
2024/04/07 06:11:00;;;;;;;;;;;;;;;13.32;100.00;97840.63;5069279;28;19942;-49
2024/04/07 06:13:25;;;;;;;;;;;;;;;13.31;100.00;97844.19;5061487;28;20350;-49
2024/04/07 06:15:50;;;;;;;;;;;;;;;13.46;100.00;97849.19;5069481;28;19917;-49
2024/04/07 06:18:17;;;;;;;;;;;;;;;13.63;100.00;97859.28;5074400;28;19962;-49
2024/04/07 06:20:42;;;;;;;;;;;;;;;13.75;100.00;97854.97;5069216;28;19916;-50
2024/04/07 06:23:07;;;;;;;;;;;;;;;13.80;100.00;97852.88;5067974;28;20011;-49
2024/04/07 06:25:33;;;;;;;;;;;;;;;14.06;100.00;97864.91;5070901;28;19932;-48
2024/04/07 06:27:58;;;;;;;;;;;;;;;14.32;97.64;97861.28;5069187;28;20005;-49
2024/04/07 06:30:23;;;;;;;;;;;;;;;14.41;97.83;97861.44;5068134;28;20295;-49
2024/04/07 06:32:48;;;;;;;;;;;;;;;14.33;98.89;97860.31;5066269;28;20355;-49
2024/04/07 06:35:13;;;;;;;;;;;;;;;14.65;98.00;97858.78;5065773;28;19957;-49
2024/04/07 06:37:39;;;;;;;;;;;;;;;14.68;98.73;97858.53;5061698;28;19986;-49
2024/04/07 06:40:05;;;;;;;;;;;;;;;14.91;98.23;97863.72;5065446;28;19934;-51
2024/04/07 06:42:31;;;;;;;;;;;;;;;15.16;97.86;97875.81;5068008;28;19950;-51
2024/04/07 06:44:59;;;;;;;;;;;;;;;15.00;96.65;97875.28;5070260;28;19921;-51
2024/04/07 06:47:25;;;;;;;;;;;;;;;15.11;95.85;97883.19;5066910;28;19925;-50
2024/04/07 06:49:51;;;;;;;;;;;;;;;14.93;96.89;97884.56;5065649;28;19984;-50
2024/04/07 06:52:16;;;;;;;;;;;;;;;14.98;96.44;97877.22;5060841;28;19923;-50
2024/04/07 06:54:43;;;;;;;;;;;;;;;14.94;96.87;97886.25;5070878;28;19916;-52
2024/04/07 06:57:08;;;;;;;;;;;;;;;15.02;97.33;97894.38;5066893;28;20339;-51
2024/04/07 06:59:34;;;;;;;;;;;;;;;15.07;96.78;97902.72;5066805;28;20037;-50
2024/04/07 07:02:00;;;;;;;;;;;;;;;15.34;96.26;97911.13;5067378;28;19927;-49
2024/04/07 07:04:26;;;;;;;;;;;;;;;15.45;95.79;97908.53;5067661;28;21819;-49
2024/04/07 07:06:51;;;;;;;;;;;;;;;15.78;94.53;97908.53;5070571;28;19916;-50
2024/04/07 07:09:17;;;;;;;;;;;;;;;15.96;93.60;97920.22;5066605;28;19943;-52
2024/04/07 07:11:42;;;;;;;;;;;;;;;16.26;91.72;97923.00;5064183;28;19962;-50
2024/04/07 07:14:08;;;;;;;;;;;;;;;16.15;92.20;97933.56;5066906;28;19940;-50
2024/04/07 07:16:33;;;;;;;;;;;;;;;16.42;91.19;97928.75;5067999;28;20066;-50
2024/04/07 07:19:00;;;;;;;;;;;;;;;16.48;88.35;97920.34;5066313;28;21293;-52
2024/04/07 07:21:25;;;;;;;;;;;;;;;16.42;86.83;97924.31;5059425;28;19958;-51
2024/04/07 07:23:50;;;;;;;;;;;;;;;16.22;88.35;97929.50;5059722;28;19936;-51
2024/04/07 07:26:15;;;;;;;;;;;;;;;16.49;87.94;97932.56;5065122;28;19975;-50
2024/04/07 07:28:41;;;;;;;;;;;;;;;16.44;93.63;97937.34;5068253;28;20268;-51
2024/04/07 07:31:06;;;;;;;;;;;;;;;16.70;92.83;97933.44;5069546;28;19944;-50
2024/04/07 07:33:31;;;;;;;;;;;;;;;17.21;90.00;97932.56;5066828;28;20338;-52
2024/04/07 07:35:56;;;;;;;;;;;;;;;17.22;89.78;97942.97;5064242;28;19925;-50
2024/04/07 07:38:22;;;;;;;;;;;;;;;17.52;88.94;97934.34;5071661;28;19912;-51
2024/04/07 07:40:48;;;;;;;;;;;;;;;17.79;87.54;97932.78;5071241;28;19913;-50
2024/04/07 07:43:13;;;;;;;;;;;;;;;17.77;86.53;97932.09;5067203;28;19967;-52
2024/04/07 07:45:40;;;;;;;;;;;;;;;17.92;85.20;97954.47;5064310;28;20470;-50
2024/04/07 07:48:05;;;;;;;;;;;;;;;18.01;84.60;97958.94;5068932;28;20250;-50
2024/04/07 07:50:30;;;;;;;;;;;;;;;18.13;84.32;97952.59;5065527;28;19952;-50
2024/04/07 07:52:56;;;;;;;;;;;;;;;18.37;85.36;97942.56;5067265;28;19954;-52
2024/04/07 07:55:21;;;;;;;;;;;;;;;19.46;81.03;97955.38;5064513;28;20011;-50
2024/04/07 07:57:47;;;;;;;;;;;;;;;20.80;73.77;97967.06;5070890;28;20046;-51
2024/04/07 08:00:12;;;;;;;;;;;;;;;22.86;66.49;97967.75;5062832;28;20374;-50
2024/04/07 08:02:38;;;;;;;;;;;;;;;21.88;65.86;97958.72;5067227;28;20659;-49
2024/04/07 08:05:04;;;;;;;;;;;;;;;22.45;65.42;97965.16;5073283;28;19916;-49
2024/04/07 08:07:29;;;;;;;;;;;;;;;21.31;67.67;97979.66;5064705;28;19946;-49
2024/04/07 08:09:54;;;;;;;;;;;;;;;20.77;68.88;97977.94;5071113;28;19943;-48
2024/04/07 08:12:20;;;;;;;;;;;;;;;20.64;72.31;97979.28;5064737;28;20653;-50
2024/04/07 08:14:45;;;;;;;;;;;;;;;21.02;71.89;97984.31;5072766;28;20442;-48
2024/04/07 08:17:10;;;;;;;;;;;;;;;22.37;67.30;97979.16;5061773;28;19943;-50
2024/04/07 08:19:36;;;;;;;;;;;;;;;22.22;67.00;97991.38;5058871;28;19992;-48
2024/04/07 08:22:01;;;;;;;;;;;;;;;23.13;64.84;97991.38;5064469;28;20024;-48
2024/04/07 08:24:26;;;;;;;;;;;;;;;23.67;62.61;97996.06;5062721;28;20398;-48
2024/04/07 08:26:52;;;;;;;;;;;;;;;23.59;62.28;98009.34;5057470;28;20271;-48
2024/04/07 08:29:18;;;;;;;;;;;;;;;22.86;63.44;98004.91;5068432;28;19955;-49
2024/04/07 08:31:44;;;;;;;;;;;;;;;22.68;61.81;97992.75;5059268;28;19937;-48
2024/04/07 08:34:09;;;;;;;;;;;;;;;23.10;59.99;98002.28;5064151;28;20366;-49
2024/04/07 08:36:35;;;;;;;;;;;;;;;23.91;57.39;98004.00;5064849;28;19931;-50
2024/04/07 08:39:00;;;;;;;;;;;;;;;23.98;55.86;97994.34;5071832;28;20337;-49
2024/04/07 08:41:25;;;;;;;;;;;;;;;24.37;54.89;97992.59;5063763;28;19921;-49
2024/04/07 08:43:51;;;;;;;;;;;;;;;24.78;53.74;97983.44;5066079;28;19972;-49
2024/04/07 08:46:16;;;;;;;;;;;;;;;23.54;52.65;97990.41;5063582;28;19972;-48
2024/04/07 08:48:45;;;;;;;;;;;;;;;24.17;52.16;97988.66;5068811;28;19916;-48
2024/04/07 08:51:11;;;;;;;;;;;;;;;24.05;52.65;97993.53;5069369;28;19981;-48
2024/04/07 08:53:39;;;;;;;;;;;;;;;23.72;54.50;97998.19;5063746;28;20421;-50
2024/04/07 08:56:08;;;;;;;;;;;;;;;23.69;55.35;97999.38;5070474;28;20336;-48
2024/04/07 08:58:34;;;;;;;;;;;;;;;23.20;56.00;97996.88;5073006;28;19929;-48
2024/04/07 09:01:00;;;;;;;;;;;;;;;22.58;56.56;97994.72;5067338;28;19932;-48
2024/04/07 09:03:26;;;;;;;;;;;;;;;22.89;58.29;97996.63;5057275;28;20301;-48
2024/04/07 09:05:52;;;;;;;;;;;;;;;23.13;57.77;97996.69;5069378;28;19920;-49
2024/04/07 09:08:17;;;;;;;;;;;;;;;23.31;57.19;97994.72;5069888;28;19941;-50
2024/04/07 09:10:42;;;;;;;;;;;;;;;23.64;55.04;98001.69;5064882;28;19994;-49
2024/04/07 09:13:07;;;;;;;;;;;;;;;23.22;54.58;98006.34;5070596;28;20004;-48
2024/04/07 09:15:33;;;;;;;;;;;;;;;22.99;54.92;98005.28;5063894;28;20024;-49
2024/04/07 09:17:58;;;;;;;;;;;;;;;23.63;53.21;98000.03;5068086;28;19937;-49
2024/04/07 09:20:23;;;;;;;;;;;;;;;23.89;52.48;98003.34;5067411;28;20059;-49
2024/04/07 09:22:48;;;;;;;;;;;;;;;24.37;52.50;97997.91;5064143;28;19944;-49
2024/04/07 09:25:14;;;;;;;;;;;;;;;24.50;52.31;98008.84;5064102;28;20255;-50
2024/04/07 09:27:40;;;;;;;;;;;;;;;24.88;51.51;98016.03;5064687;28;19921;-48
2024/04/07 09:30:06;;;;;;;;;;;;;;;25.08;50.67;98017.22;5067277;28;20021;-49
2024/04/07 09:32:31;;;;;;;;;;;;;;;25.50;49.56;98010.47;5067416;28;20012;-48
2024/04/07 09:34:56;;;;;;;;;;;;;;;25.52;50.53;98020.97;5066933;28;20340;-48
2024/04/07 09:37:21;;;;;;;;;;;;;;;25.37;50.33;98017.38;5061585;28;19927;-50
2024/04/07 09:39:47;;;;;;;;;;;;;;;25.26;50.33;98018.63;5065171;28;20005;-48
2024/04/07 09:42:18;;;;;;;;;;;;;;;24.84;50.55;98010.22;5065694;28;20350;-48
2024/04/07 09:44:45;;;;;;;;;;;;;;;24.41;50.91;98004.56;5064366;28;19916;-48
2024/04/07 09:47:13;;;;;;;;;;;;;;;24.48;50.66;97997.53;5063977;28;19916;-48
2024/04/07 09:49:39;;;;;;;;;;;;;;;24.41;51.67;98004.56;5065476;28;19983;-50
2024/04/07 09:52:05;;;;;;;;;;;;;;;24.41;51.44;98001.91;5067105;28;19968;-49
2024/04/07 09:54:44;;;;;;;;;;;;;;;24.59;51.15;98010.50;5062405;28;19957;-50
2024/04/07 09:57:10;;;;;;;;;;;;;;;25.36;50.69;98015.75;5058791;28;19920;-50
2024/04/07 09:59:37;;;;;;;;;;;;;;;26.32;47.55;98015.69;5067406;28;20011;-49
2024/04/07 10:02:02;;;;;;;;;;;;;;;26.81;46.80;98015.97;5069438;28;20262;-48
2024/04/07 10:04:28;;;;;;;;;;;;;;;28.08;45.30;98026.56;5056292;28;19940;-49
2024/04/07 10:06:53;;;;;;;;;;;;;;;28.68;44.70;98023.25;5064717;28;19942;-49
2024/04/07 10:09:19;;;;;;;;;;;;;;;28.81;42.73;98020.63;5063796;28;19959;-50
2024/04/07 10:11:48;;;;;;;;;;;;;;;28.89;42.27;98018.63;5065591;28;19953;-50
2024/04/07 10:14:17;;;;;;;;;;;;;;;29.91;43.20;98020.94;5062003;28;19943;-49
2024/04/07 10:16:48;;;;;;;;;;;;;;;29.40;42.03;98021.69;5064691;28;20351;-49
2024/04/07 10:19:14;;;;;;;;;;;;;;;29.24;41.73;98030.13;5061683;28;19916;-49
2024/04/07 10:21:39;;;;;;;;;;;;;;;29.90;40.65;98034.56;5062208;28;20034;-50
2024/04/07 10:24:06;;;;;;;;;;;;;;;29.80;40.36;98026.09;5063738;28;19992;-50
2024/04/07 10:26:32;;;;;;;;;;;;;;;28.99;40.38;98029.00;5066875;28;20017;-50
2024/04/07 10:28:57;;;;;;;;;;;;;;;29.98;39.88;98023.63;5069037;28;19920;-50
2024/04/07 10:31:38;;;;;;;;;;;;;;;29.58;40.21;98022.78;5062627;28;19954;-51
2024/04/07 10:34:03;;;;;;;;;;;;;;;29.00;39.56;98020.75;5065205;28;19938;-51
2024/04/07 10:36:33;;;;;;;;;;;;;;;28.89;39.97;98012.41;5066987;28;19945;-50
2024/04/07 10:38:58;;;;;;;;;;;;;;;29.02;39.83;98013.34;5069985;28;19936;-50
2024/04/07 10:41:25;;;;;;;;;;;;;;;28.66;39.47;98003.88;5061129;28;20223;-51
2024/04/07 10:43:50;;;;;;;;;;;;;;;28.04;41.07;97989.66;5068517;28;19935;-49
2024/04/07 10:46:17;;;;;;;;;;;;;;;26.53;42.11;97985.63;5062666;28;20082;-48
2024/04/07 10:48:43;;;;;;;;;;;;;;;26.94;42.39;97984.06;5067795;28;19953;-50
2024/04/07 10:51:09;;;;;;;;;;;;;;;26.67;42.18;97982.09;5070681;28;19917;-49
2024/04/07 10:53:34;;;;;;;;;;;;;;;25.80;43.66;97966.84;5070474;28;20352;-49
2024/04/07 10:56:00;;;;;;;;;;;;;;;26.25;43.51;97961.38;5068201;28;19927;-49
2024/04/07 10:58:25;;;;;;;;;;;;;;;26.23;43.58;97967.94;5060984;28;20042;-49
2024/04/07 11:00:51;;;;;;;;;;;;;;;26.70;43.36;97961.19;5060085;28;19940;-49
2024/04/07 11:03:16;;;;;;;;;;;;;;;27.53;43.63;97970.28;5063592;28;20373;-50
2024/04/07 11:05:41;;;;;;;;;;;;;;;27.75;43.80;97973.78;5062242;28;19995;-50
2024/04/07 11:08:07;;;;;;;;;;;;;;;27.15;42.46;97960.06;5064100;28;19928;-50
2024/04/07 11:10:33;;;;;;;;;;;;;;;26.67;43.45;97955.41;5064663;28;19923;-51
2024/04/07 11:13:02;;;;;;;;;;;;;;;27.40;42.72;97958.66;5061207;28;19918;-49
2024/04/07 11:15:28;;;;;;;;;;;;;;;27.30;42.63;97955.47;5059501;28;20235;-49
2024/04/07 11:17:53;;;;;;;;;;;;;;;27.62;41.62;97950.44;5059915;28;19934;-49
2024/04/07 11:20:18;;;;;;;;;;;;;;;28.05;41.06;97946.63;5059239;28;19929;-49
2024/04/07 11:22:43;;;;;;;;;;;;;;;27.14;42.37;97953.03;5057664;28;20258;-50
2024/04/07 11:25:09;;;;;;;;;;;;;;;26.08;43.82;97948.41;5060554;28;20540;-49
2024/04/07 11:27:34;;;;;;;;;;;;;;;27.91;41.92;97958.28;5061885;28;19947;-50
2024/04/07 11:30:00;;;;;;;;;;;;;;;28.30;41.69;97955.00;5066462;28;20016;-50
2024/04/07 11:32:28;;;;;;;;;;;;;;;29.25;39.95;97959.34;5061605;28;19949;-50
2024/04/07 11:34:54;;;;;;;;;;;;;;;28.68;39.92;97956.25;5058584;28;19913;-52
2024/04/07 11:37:19;;;;;;;;;;;;;;;29.85;39.60;97941.22;5058669;28;19916;-49
2024/04/07 11:39:50;;;;;;;;;;;;;;;27.80;41.62;97941.94;5058422;28;19919;-49
2024/04/07 11:42:15;;;;;;;;;;;;;;;28.13;41.06;97929.59;5061280;28;19913;-50
2024/04/07 11:44:40;;;;;;;;;;;;;;;27.95;41.05;97915.88;5058352;28;20328;-49
2024/04/07 11:47:06;;;;;;;;;;;;;;;28.96;40.40;97925.66;5060373;28;19923;-50
2024/04/07 11:49:33;;;;;;;;;;;;;;;29.35;40.72;97922.19;5059845;28;19914;-51
2024/04/07 11:51:58;;;;;;;;;;;;;;;29.06;40.16;97922.59;5057058;28;19943;-51
2024/04/07 11:54:23;;;;;;;;;;;;;;;29.05;39.73;97923.63;5058064;28;20026;-50
2024/04/07 11:56:51;;;;;;;;;;;;;;;28.70;39.95;97922.88;5060586;28;19948;-50
2024/04/07 11:59:16;;;;;;;;;;;;;;;29.03;39.20;97917.63;5058027;28;20968;-50
2024/04/07 12:01:41;;;;;;;;;;;;;;;30.15;38.74;97912.06;5060830;28;20056;-50
2024/04/07 12:04:08;;;;;;;;;;;;;;;29.01;38.95;97900.91;5065014;28;20383;-49
2024/04/07 12:06:33;;;;;;;;;;;;;;;29.48;37.91;97906.09;5065980;28;20029;-49
2024/04/07 12:08:58;;;;;;;;;;;;;;;30.61;38.63;97899.28;5059656;28;20333;-49
2024/04/07 12:11:24;;;;;;;;;;;;;;;30.02;39.12;97899.47;5061645;28;20618;-49
2024/04/07 12:13:49;;;;;;;;;;;;;;;29.17;38.82;97897.84;5058080;28;19925;-49
2024/04/07 12:16:14;;;;;;;;;;;;;;;29.34;39.12;97901.78;5061146;28;19978;-49
2024/04/07 12:18:39;;;;;;;;;;;;;;;30.39;38.89;97889.88;5061127;28;20296;-49
2024/04/07 12:21:05;;;;;;;;;;;;;;;30.18;39.04;97882.09;5063111;28;20285;-49
2024/04/07 12:23:30;;;;;;;;;;;;;;;28.87;39.41;97894.69;5056637;28;19975;-49
2024/04/07 12:25:56;;;;;;;;;;;;;;;28.62;39.74;97887.38;5057554;28;20259;-49
2024/04/07 12:28:21;;;;;;;;;;;;;;;28.89;39.84;97883.75;5061221;28;20299;-49
2024/04/07 12:30:50;;;;;;;;;;;;;;;29.19;40.14;97885.06;5057248;28;19987;-49
2024/04/07 12:33:15;;;;;;;;;;;;;;;29.17;39.64;97881.75;5060646;28;19912;-49
2024/04/07 12:35:42;;;;;;;;;;;;;;;28.39;42.63;97878.88;5058679;28;20012;-49
2024/04/07 12:38:08;;;;;;;;;;;;;;;28.48;40.92;97870.47;5061222;28;19923;-48